Time;durP1;ratioP1;P1;durP2;ratioP2;P2;SDS_P1;SDS_P2;PMS_P1;PMS_P2;Temp;Humidity;BMP_temperature;BMP_pressure;BME280_temperature;BME280_humidity;BME280_pressure;Samples;Min_cycle;Max_cycle;Signal;HPM_P1;HPM_P2
2022/01/21 00:01:41;;;;;;;9.50;3.47;;;;;;;-2.01;100.00;98329.30;1680783;84;21072;-68
2022/01/21 00:04:10;;;;;;;7.83;3.65;;;;;;;-2.04;100.00;98317.69;1664720;85;21736;-70
2022/01/21 00:06:38;;;;;;;11.53;3.92;;;;;;;-2.06;100.00;98315.78;1680776;84;21568;-69
2022/01/21 00:09:06;;;;;;;9.25;4.20;;;;;;;-2.10;100.00;98319.55;1680291;84;21473;-71
2022/01/21 00:11:34;;;;;;;7.70;4.10;;;;;;;-2.14;100.00;98318.48;1682844;84;21140;-69
2022/01/21 00:14:02;;;;;;;8.18;4.05;;;;;;;-2.13;100.00;98319.30;1683217;84;21124;-68
2022/01/21 00:16:29;;;;;;;11.45;4.28;;;;;;;-2.15;100.00;98314.70;1694442;83;21191;-68
2022/01/21 00:19:04;;;;;;;10.78;4.83;;;;;;;-2.16;100.00;98319.27;1686886;84;21477;-69
2022/01/21 00:32:29;;;;;;;7.65;3.52;;;;;;;-2.18;100.00;98311.18;1685204;84;21079;-69
2022/01/21 00:34:56;;;;;;;11.28;4.17;;;;;;;-2.20;100.00;98304.14;1671049;85;21090;-69
2022/01/21 00:37:23;;;;;;;14.98;4.78;;;;;;;-2.21;100.00;98311.16;1667591;85;21091;-69
2022/01/21 00:39:59;;;;;;;17.35;4.85;;;;;;;-2.21;100.00;98305.23;1622135;86;21094;-68
2022/01/21 00:45:01;;;;;;;8.03;4.00;;;;;;;-2.20;100.00;98308.19;1654938;86;21056;-69
2022/01/21 00:47:26;;;;;;;13.48;4.87;;;;;;;-2.19;100.00;98300.91;1660030;84;21395;-69
2022/01/21 00:49:55;;;;;;;14.90;4.00;;;;;;;-2.16;100.00;98302.25;1682658;84;21048;-70
2022/01/21 00:52:23;;;;;;;11.20;3.65;;;;;;;-2.14;100.00;98306.86;1683371;84;21036;-69
2022/01/21 00:54:52;;;;;;;12.05;4.00;;;;;;;-2.16;100.00;98304.95;1666930;85;21133;-68
2022/01/21 00:57:23;;;;;;;12.55;4.00;;;;;;;-2.21;100.00;98305.76;1686971;84;21604;-69
2022/01/21 00:59:51;;;;;;;10.20;3.85;;;;;;;-2.25;100.00;98306.82;1652383;85;21037;-69
2022/01/21 01:02:17;;;;;;;12.40;4.37;;;;;;;-2.27;100.00;98313.02;1684390;84;21031;-68
2022/01/21 01:04:44;;;;;;;7.53;3.10;;;;;;;-2.28;100.00;98316.80;1667334;85;21523;-70
2022/01/21 01:07:10;;;;;;;8.60;3.42;;;;;;;-2.29;100.00;98320.59;1669470;85;21172;-68
2022/01/21 01:09:38;;;;;;;8.28;3.10;;;;;;;-2.30;100.00;98318.16;1686100;84;21027;-69
2022/01/21 01:12:17;;;;;;;9.90;3.40;;;;;;;-2.32;100.00;98317.08;1695471;83;21476;-69
2022/01/21 01:20:08;;;;;;;8.13;3.35;;;;;;;-2.36;100.00;98317.31;1685169;84;21142;-68
2022/01/21 01:27:57;;;;;;;13.55;4.40;;;;;;;-2.44;100.00;98321.34;1682554;84;21076;-66
2022/01/21 01:30:28;;;;;;;7.85;3.30;;;;;;;-2.47;100.00;98322.66;1658646;84;21024;-68
2022/01/21 01:32:59;;;;;;;7.80;3.27;;;;;;;-2.46;100.00;98324.84;1685321;84;21070;-68
2022/01/21 01:35:30;;;;;;;11.28;3.27;;;;;;;-2.45;100.00;98326.45;1667462;85;21034;-69
2022/01/21 01:38:22;;;;;;;8.68;3.30;;;;;;;-2.49;100.00;98315.36;1667099;85;21530;-71
2022/01/21 01:40:44;;;;;;;11.60;3.80;;;;;;;-2.51;100.00;98312.14;1684118;84;21541;-69
2022/01/21 01:51:28;;;;;;;11.75;3.50;;;;;;;-2.51;100.00;98304.58;1687214;84;21087;-69
2022/01/21 01:54:03;;;;;;;12.30;3.65;;;;;;;-2.54;100.00;98293.76;1694527;83;21019;-69
2022/01/21 01:56:34;;;;;;;9.20;3.67;;;;;;;-2.54;100.00;98295.11;1685381;84;21062;-71
2022/01/21 01:59:05;;;;;;;10.32;3.27;;;;;;;-2.55;100.00;98296.19;1640861;86;21376;-68
2022/01/21 02:01:31;;;;;;;7.92;3.33;;;;;;;-2.57;100.00;98287.02;1655464;85;21740;-70
2022/01/21 02:04:00;;;;;;;7.97;3.17;;;;;;;-2.60;100.00;98287.55;1658913;84;21052;-70
2022/01/21 02:06:28;;;;;;;11.70;2.92;;;;;;;-2.61;100.00;98291.30;1685885;84;21063;-70
2022/01/21 02:08:56;;;;;;;8.25;3.42;;;;;;;-2.62;100.00;98295.61;1682214;84;21548;-69
2022/01/21 02:11:23;;;;;;;7.22;3.00;;;;;;;-2.65;100.00;98297.49;1659332;84;21166;-70
2022/01/21 02:13:56;;;;;;;7.40;3.35;;;;;;;-2.70;100.00;98288.84;1682662;84;21493;-70
2022/01/21 02:21:44;;;;;;;10.95;2.92;;;;;;;-2.81;100.00;98277.19;1672957;85;21096;-68
2022/01/21 02:24:22;;;;;;;9.43;3.30;;;;;;;-2.84;100.00;98287.15;1672540;85;21796;-68
2022/01/21 02:26:52;;;;;;;9.30;3.22;;;;;;;-2.87;100.00;98280.94;1675000;85;21048;-69
2022/01/21 02:29:28;;;;;;;8.60;3.12;;;;;;;-2.88;100.00;98284.72;1654613;85;21565;-67
2022/01/21 02:31:53;;;;;;;10.88;3.10;;;;;;;-2.87;100.00;98276.89;1676031;84;21103;-68
2022/01/21 02:34:21;;;;;;;11.80;3.30;;;;;;;-2.83;100.00;98282.84;1654814;85;21111;-69
2022/01/21 02:36:50;;;;;;;8.48;3.55;;;;;;;-2.80;100.00;98269.39;1672754;85;21040;-69
2022/01/21 02:39:18;;;;;;;6.75;2.77;;;;;;;-2.76;100.00;98274.52;1657118;85;21404;-70
2022/01/21 02:41:44;;;;;;;9.95;3.25;;;;;;;-2.74;100.00;98273.72;1681016;84;21075;-68
2022/01/21 02:44:15;;;;;;;9.00;3.83;;;;;;;-2.71;100.00;98268.33;1680423;84;21096;-69
2022/01/21 02:46:45;;;;;;;9.95;3.45;;;;;;;-2.67;100.00;98264.57;1680032;84;21063;-66
2022/01/21 02:49:11;;;;;;;12.47;3.58;;;;;;;-2.66;100.00;98260.25;1651448;84;21075;-70
2022/01/21 02:51:38;;;;;;;13.18;3.85;;;;;;;-2.64;100.00;98254.59;1682605;84;21071;-68
2022/01/21 02:54:06;;;;;;;9.28;3.87;;;;;;;-2.66;100.00;98246.77;1681725;84;21325;-68
2022/01/21 02:56:36;;;;;;;11.88;4.20;;;;;;;-2.67;100.00;98245.16;1679942;84;21549;-68
2022/01/21 02:59:07;;;;;;;11.40;4.12;;;;;;;-2.69;100.00;98250.82;1682859;84;21048;-69
2022/01/21 03:01:35;;;;;;;5.87;3.02;;;;;;;-2.72;100.00;98245.14;1657129;85;21134;-68
2022/01/21 03:04:05;;;;;;;8.53;3.92;;;;;;;-2.74;100.00;98236.49;1682762;84;21035;-69
2022/01/21 03:06:32;;;;;;;10.53;3.65;;;;;;;-2.78;100.00;98241.59;1682067;84;21537;-69
2022/01/21 03:09:03;;;;;;;8.70;2.83;;;;;;;-2.84;100.00;98234.04;1676344;84;21108;-70
2022/01/21 03:11:32;;;;;;;9.40;3.27;;;;;;;-2.88;100.00;98236.97;1680568;84;21071;-69
2022/01/21 03:13:59;;;;;;;10.45;3.65;;;;;;;-2.89;100.00;98238.06;1657088;85;21518;-68
2022/01/21 03:16:26;;;;;;;12.40;3.62;;;;;;;-2.88;100.00;98236.19;1653819;84;21110;-69
2022/01/21 03:18:54;;;;;;;7.62;3.52;;;;;;;-2.91;100.00;98234.81;1694774;84;21051;-68
2022/01/21 03:21:21;;;;;;;12.50;3.75;;;;;;;-2.94;100.00;98223.20;1698858;83;21624;-65
2022/01/21 03:23:50;;;;;;;12.15;4.47;;;;;;;-2.97;100.00;98209.70;1706060;82;21068;-68
2022/01/21 03:26:20;;;;;;;9.28;4.28;;;;;;;-2.95;100.00;98209.46;1729400;82;21336;-68
2022/01/21 03:28:53;;;;;;;8.95;3.87;;;;;;;-2.93;100.00;98218.08;1730573;82;21049;-69
2022/01/21 03:31:21;;;;;;;14.47;5.00;;;;;;;-2.91;100.00;98216.46;1732606;82;21077;-67
2022/01/21 03:33:49;;;;;;;10.95;4.15;;;;;;;-2.89;100.00;98212.97;1730390;82;21009;-68
2022/01/21 03:36:17;;;;;;;12.40;4.03;;;;;;;-2.89;100.00;98208.41;1733699;82;21076;-69
2022/01/21 03:38:46;;;;;;;11.95;4.00;;;;;;;-2.84;100.00;98214.34;1701855;82;21133;-69
2022/01/21 03:41:14;;;;;;;10.72;3.90;;;;;;;-2.83;100.00;98205.17;1733587;81;21457;-68
2022/01/21 03:43:47;;;;;;;8.88;3.87;;;;;;;-2.81;100.00;98208.42;1729209;82;21049;-68
2022/01/21 03:46:15;;;;;;;6.60;3.17;;;;;;;-2.81;100.00;98209.77;1728316;82;21052;-70
2022/01/21 03:48:47;;;;;;;12.75;3.35;;;;;;;-2.84;100.00;98203.03;1732356;82;21016;-68
2022/01/21 03:51:17;;;;;;;9.95;3.62;;;;;;;-2.88;100.00;98202.48;1735325;82;21140;-69
2022/01/21 03:53:45;;;;;;;9.38;3.87;;;;;;;-2.90;100.00;98201.92;1732493;82;21076;-68
2022/01/21 03:56:14;;;;;;;9.70;3.30;;;;;;;-2.94;100.00;98203.80;1731007;82;21322;-67
2022/01/21 03:58:42;;;;;;;10.10;4.22;;;;;;;-2.96;100.00;98208.64;1729356;82;21024;-67
2022/01/21 04:01:10;;;;;;;8.13;3.90;;;;;;;-2.98;100.00;98204.05;1730899;82;20961;-68
2022/01/21 04:03:37;;;;;;;14.45;3.98;;;;;;;-2.98;100.00;98205.39;1731714;82;21221;-68
2022/01/21 04:06:06;;;;;;;8.75;3.83;;;;;;;-2.95;100.00;98206.77;1729103;82;21090;-68
2022/01/21 04:08:35;;;;;;;9.70;3.70;;;;;;;-2.96;100.00;98197.03;1729720;82;21044;-69
2022/01/21 04:11:05;;;;;;;11.10;3.37;;;;;;;-2.96;100.00;98201.91;1733139;82;21039;-67
2022/01/21 04:13:35;;;;;;;10.45;3.80;;;;;;;-2.96;100.00;98203.78;1730015;81;20969;-69
2022/01/21 04:16:04;;;;;;;9.08;4.30;;;;;;;-2.96;100.00;98195.69;1730055;82;22621;-68
2022/01/21 04:18:33;;;;;;;10.48;3.98;;;;;;;-2.99;100.00;98190.30;1734854;82;21008;-68
2022/01/21 04:21:07;;;;;;;9.55;4.28;;;;;;;-2.99;100.00;98184.09;1668818;83;21019;-66
2022/01/21 04:23:34;;;;;;;11.65;3.90;;;;;;;-3.00;100.00;98189.22;1733851;81;21028;-69
2022/01/21 04:26:05;;;;;;;11.60;4.15;;;;;;;-3.02;100.00;98186.76;1736071;82;21047;-69
2022/01/21 04:28:32;;;;;;;11.22;4.15;;;;;;;-3.03;100.00;98199.97;1734386;82;21057;-69
2022/01/21 04:31:01;;;;;;;12.93;4.08;;;;;;;-3.04;100.00;98190.27;1732726;82;21083;-69
2022/01/21 04:33:34;;;;;;;10.65;4.08;;;;;;;-3.04;100.00;98205.10;1727493;82;21035;-68
2022/01/21 04:36:04;;;;;;;9.95;3.87;;;;;;;-3.06;100.00;98196.45;1736305;82;21060;-70
2022/01/21 04:38:35;;;;;;;13.32;4.22;;;;;;;-3.05;100.00;98187.28;1734579;82;21008;-68
2022/01/21 04:41:23;;;;;;;9.23;4.60;;;;;;;-3.05;100.00;98195.37;1735993;82;21687;-68
2022/01/21 04:49:06;;;;;;;13.22;4.47;;;;;;;-3.09;100.00;98194.30;1735536;82;21021;-68
2022/01/21 04:51:40;;;;;;;15.75;4.55;;;;;;;-3.09;100.00;98197.78;1734615;82;21028;-67
2022/01/21 04:54:05;;;;;;;9.13;3.98;;;;;;;-3.08;100.00;98194.55;1705417;82;21062;-68
2022/01/21 04:56:35;;;;;;;13.05;5.03;;;;;;;-3.09;100.00;98187.00;1733914;82;21052;-68
2022/01/21 04:59:02;;;;;;;11.55;4.92;;;;;;;-3.07;100.00;98190.25;1712720;82;21048;-67
2022/01/21 05:01:34;;;;;;;12.30;4.58;;;;;;;-3.07;100.00;98190.80;1707267;82;21443;-68
2022/01/21 05:04:02;;;;;;;12.80;4.60;;;;;;;-3.07;100.00;98196.98;1732940;82;21091;-68
2022/01/21 05:06:28;;;;;;;12.53;4.70;;;;;;;-3.05;100.00;98195.37;1735229;82;21293;-68
2022/01/21 05:09:00;;;;;;;13.35;4.62;;;;;;;-3.04;100.00;98192.97;1731799;82;21004;-69
2022/01/21 05:11:28;;;;;;;;;;;;;;;-3.03;100.00;98191.06;1736405;82;21008;-67
2022/01/21 05:14:10;;;;;;;10.98;4.65;;;;;;;-3.02;100.00;98188.11;1736859;82;20168;-68
2022/01/21 05:19:00;;;;;;;10.93;3.98;;;;;;;-3.01;100.00;98192.44;1720435;82;21762;-67
2022/01/21 05:21:35;;;;;;;10.95;4.42;;;;;;;-2.98;100.00;98192.44;1694236;82;21079;-69
2022/01/21 05:24:06;;;;;;;11.93;4.70;;;;;;;-2.98;100.00;98192.44;1721897;82;21072;-67
2022/01/21 05:26:39;;;;;;;11.20;4.85;;;;;;;-3.00;100.00;98190.01;1717973;82;21776;-70
2022/01/21 05:29:11;;;;;;;9.58;4.78;;;;;;;-3.01;100.00;98191.09;1719101;81;21048;-68
2022/01/21 05:31:49;;;;;;;11.40;5.30;;;;;;;-3.02;100.00;98192.15;1718862;82;21036;-67
2022/01/21 05:34:19;;;;;;;15.88;5.25;;;;;;;-3.03;100.00;98187.84;1717428;82;21076;-68
2022/01/21 05:36:50;;;;;;;14.63;4.58;;;;;;;-3.02;100.00;98194.84;1702224;82;21528;-68
2022/01/21 05:39:28;;;;;;;10.75;4.75;;;;;;;-3.01;100.00;98187.58;1722060;82;21044;-68
2022/01/21 05:42:04;;;;;;;21.85;5.03;;;;;;;-3.01;100.00;98194.31;1719852;82;21116;-69
2022/01/21 05:47:20;;;;;;;12.78;4.37;;;;;;;-2.99;100.00;98194.34;1715930;82;21068;-71
2022/01/21 05:53:09;;;;;;;11.65;5.12;;;;;;;-2.88;100.00;98205.97;1722280;82;20171;-69
2022/01/21 05:56:03;;;;;;;12.63;4.45;;;;;;;-2.93;100.00;98207.29;1721973;82;21087;-70
2022/01/21 05:58:35;;;;;;;18.17;5.85;;;;;;;-2.98;100.00;98198.65;1719993;82;21157;-69
2022/01/21 06:01:03;;;;;;;11.53;4.65;;;;;;;-2.99;100.00;98200.27;1719759;82;21466;-69
2022/01/21 06:03:32;;;;;;;11.35;4.75;;;;;;;-3.01;100.00;98198.36;1723556;82;21509;-70
2022/01/21 06:06:00;;;;;;;13.53;4.08;;;;;;;-3.00;100.00;98200.79;1706272;82;21044;-70
2022/01/21 06:08:27;;;;;;;14.65;5.47;;;;;;;-2.97;100.00;98202.17;1698593;82;21104;-68
2022/01/21 06:10:57;;;;;;;10.90;4.92;;;;;;;-2.95;100.00;98208.11;1720749;82;21486;-69
2022/01/21 06:13:25;;;;;;;12.07;5.03;;;;;;;-2.92;100.00;98205.41;1721883;82;21038;-68
2022/01/21 06:15:58;;;;;;;16.75;5.50;;;;;;;-2.88;100.00;98201.92;1718113;82;21041;-68
2022/01/21 06:18:28;;;;;;;9.75;4.47;;;;;;;-2.87;100.00;98203.56;1722065;82;21563;-66
2022/01/21 06:20:58;;;;;;;16.37;5.73;;;;;;;-2.84;100.00;98208.95;1721143;82;22109;-68
2022/01/21 06:23:26;;;;;;;13.25;5.33;;;;;;;-2.84;100.00;98208.95;1719197;82;21068;-70
2022/01/21 06:25:53;;;;;;;15.03;5.42;;;;;;;-2.84;100.00;98203.03;1721809;82;21052;-70
2022/01/21 06:28:24;;;;;;;12.75;5.70;;;;;;;-2.82;100.00;98208.16;1721317;82;21310;-68
2022/01/21 06:30:52;;;;;;;15.13;4.90;;;;;;;-2.82;100.00;98204.94;1719822;82;21076;-68
2022/01/21 06:33:23;;;;;;;12.15;5.05;;;;;;;-2.78;100.00;98207.88;1720165;82;20978;-67
2022/01/21 06:35:50;;;;;;;21.30;6.37;;;;;;;-2.78;100.00;98211.14;1706695;82;21076;-68
2022/01/21 06:38:20;;;;;;;22.15;6.40;;;;;;;-2.77;100.00;98211.41;1720507;82;21513;-67
2022/01/21 06:40:51;;;;;;;18.45;5.75;;;;;;;-2.79;100.00;98215.72;1719156;82;21561;-69
2022/01/21 06:43:18;;;;;;;15.35;5.97;;;;;;;-2.77;100.00;98209.52;1721001;82;21029;-70
2022/01/21 06:45:46;;;;;;;16.17;5.37;;;;;;;-2.77;100.00;98217.62;1718306;82;21049;-70
2022/01/21 06:48:12;;;;;;;17.92;6.17;;;;;;;-2.76;100.00;98213.84;1721855;82;21141;-69
2022/01/21 06:50:41;;;;;;;20.15;7.28;;;;;;;-2.74;100.00;98216.27;1720701;82;21052;-68
2022/01/21 06:53:10;;;;;;;17.60;6.10;;;;;;;-2.74;100.00;98221.66;1719016;82;21040;-69
2022/01/21 06:55:44;;;;;;;14.63;5.55;;;;;;;-2.78;100.00;98215.98;1723337;82;21548;-67
2022/01/21 06:58:11;;;;;;;14.45;5.72;;;;;;;-2.78;100.00;98217.33;1719451;82;21036;-70
2022/01/21 07:00:41;;;;;;;16.35;5.08;;;;;;;-2.78;100.00;98213.28;1720896;82;21891;-69
2022/01/21 07:03:10;;;;;;;11.60;5.72;;;;;;;-2.75;100.00;98222.75;1721726;82;21131;-68
2022/01/21 07:05:40;;;;;;;20.92;5.62;;;;;;;-2.75;100.00;98216.83;1718287;82;28232;-70
2022/01/21 07:08:09;;;;;;;15.10;6.20;;;;;;;-2.71;100.00;98215.20;1722369;82;21135;-68
2022/01/21 07:10:39;;;;;;;16.35;4.95;;;;;;;-2.66;100.00;98213.61;1720039;82;21044;-69
2022/01/21 07:13:11;;;;;;;13.18;5.15;;;;;;;-2.63;100.00;98222.52;1719305;82;21017;-67
2022/01/21 07:15:38;;;;;;;15.05;6.08;;;;;;;-2.64;100.00;98215.48;1722011;82;20971;-68
2022/01/21 07:18:07;;;;;;;14.75;5.33;;;;;;;-2.65;100.00;98209.30;1734870;82;21509;-69
2022/01/21 07:20:39;;;;;;;16.48;7.17;;;;;;;-2.64;100.00;98215.48;1733538;82;21083;-68
2022/01/21 07:23:12;;;;;;;10.50;5.60;;;;;;;-2.68;100.00;98220.62;1732953;81;21043;-69
2022/01/21 07:25:39;;;;;;;9.93;4.95;;;;;;;-2.71;100.00;98219.25;1734528;82;21970;-67
2022/01/21 07:28:05;;;;;;;11.85;4.37;;;;;;;-2.73;100.00;98220.05;1731850;82;21493;-68
2022/01/21 07:30:31;;;;;;;11.88;4.62;;;;;;;-2.74;100.00;98218.43;1736613;82;21020;-68
2022/01/21 07:32:59;;;;;;;8.40;4.42;;;;;;;-2.74;100.00;98229.75;1734579;82;21040;-69
2022/01/21 07:35:26;;;;;;;14.33;5.25;;;;;;;-2.75;100.00;98219.52;1735924;82;21071;-67
2022/01/21 07:37:55;;;;;;;11.88;4.87;;;;;;;-2.74;100.00;98214.91;1705526;82;21079;-68
2022/01/21 07:40:24;;;;;;;9.03;4.67;;;;;;;-2.72;100.00;98218.98;1736965;82;20989;-70
2022/01/21 07:42:50;;;;;;;9.10;3.52;;;;;;;-2.68;100.00;98221.97;1729040;82;21055;-68
2022/01/21 07:45:18;;;;;;;11.20;4.40;;;;;;;-2.63;100.00;98227.39;1733460;82;21028;-66
2022/01/21 07:47:48;;;;;;;11.35;4.55;;;;;;;-2.60;100.00;98215.24;1733421;82;20977;-68
2022/01/21 07:50:16;;;;;;;10.72;4.75;;;;;;;-2.52;100.00;98230.91;1736130;82;21484;-70
2022/01/21 07:52:43;;;;;;;11.05;4.30;;;;;;;-2.46;100.00;98215.56;1734657;82;21052;-68
2022/01/21 07:55:13;;;;;;;11.43;4.60;;;;;;;-2.39;100.00;98216.66;1733285;82;21120;-69
2022/01/21 07:57:39;;;;;;;12.60;5.20;;;;;;;-2.30;100.00;98211.55;1734034;82;21013;-69
2022/01/21 08:00:08;;;;;;;10.50;4.80;;;;;;;-2.20;100.00;98220.46;1733798;82;20992;-69
2022/01/21 08:02:38;;;;;;;11.83;4.42;;;;;;;-2.10;100.00;98215.61;1736379;82;21154;-69
2022/01/21 08:05:06;;;;;;;8.25;3.40;;;;;;;-2.01;100.00;98216.42;1729767;82;21576;-70
2022/01/21 08:07:40;;;;;;;17.32;5.15;;;;;;;-1.90;100.00;98212.67;1704886;82;21071;-70
2022/01/21 08:10:12;;;;;;;15.30;5.33;;;;;;;-1.84;100.00;98214.28;1736201;82;21063;-69
2022/01/21 08:12:40;;;;;;;11.80;4.45;;;;;;;-1.80;100.00;98215.09;1735894;82;21481;-69
2022/01/21 08:15:09;;;;;;;12.63;4.87;;;;;;;-1.78;100.00;98215.11;1735333;82;21035;-69
2022/01/21 08:17:35;;;;;;;6.95;4.17;;;;;;;-1.78;100.00;98220.52;1732777;82;21115;-70
2022/01/21 08:20:02;;;;;;;19.52;5.60;;;;;;;-1.81;100.00;98210.25;1734811;82;21075;-68
2022/01/21 08:22:30;;;;;;;12.18;4.25;;;;;;;-1.84;100.00;98216.98;1735677;82;20992;-69
2022/01/21 08:24:58;;;;;;;17.50;5.17;;;;;;;-1.86;100.00;98215.09;1732636;82;21028;-68
2022/01/21 08:27:24;;;;;;;16.73;6.28;;;;;;;-1.92;100.00;98210.77;1734294;82;21560;-68
2022/01/21 08:29:54;;;;;;;15.63;5.47;;;;;;;-1.93;100.00;98213.22;1735902;82;21107;-68
2022/01/21 08:32:22;;;;;;;8.88;4.65;;;;;;;-1.89;100.00;98209.41;1711247;82;20985;-70
2022/01/21 08:34:52;;;;;;;12.82;4.95;;;;;;;-1.85;100.00;98207.81;1709997;82;21008;-70
2022/01/21 08:37:20;;;;;;;10.48;5.03;;;;;;;-1.76;100.00;98203.50;1733013;82;21056;-69
2022/01/21 08:39:52;;;;;;;11.75;5.92;;;;;;;-1.68;100.00;98212.13;1733753;82;21111;-69
2022/01/21 08:42:21;;;;;;;10.72;4.90;;;;;;;-1.63;100.00;98198.61;1735476;81;21033;-70
2022/01/21 08:44:48;;;;;;;12.23;4.95;;;;;;;-1.62;100.00;98205.09;1708156;82;21492;-69
2022/01/21 08:47:22;;;;;;;9.58;4.75;;;;;;;-1.63;99.77;98202.66;1709116;82;21066;-69
2022/01/21 08:49:49;;;;;;;14.18;4.70;;;;;;;-1.68;100.00;98203.48;1735274;82;21039;-67
2022/01/21 08:52:20;;;;;;;13.00;4.97;;;;;;;-1.73;100.00;98196.20;1732923;82;21529;-69
2022/01/21 08:54:50;;;;;;;12.10;5.25;;;;;;;-1.79;100.00;98205.36;1734292;82;21473;-69
2022/01/21 08:57:19;;;;;;;14.28;4.22;;;;;;;-1.82;100.00;98215.36;1735952;82;21028;-68
2022/01/21 08:59:49;;;;;;;11.55;4.15;;;;;;;-1.83;100.00;98216.45;1734591;82;21088;-69
2022/01/21 09:02:15;;;;;;;11.10;4.37;;;;;;;-1.84;99.55;98207.53;1736714;82;21055;-69
2022/01/21 09:04:41;;;;;;;13.53;5.33;;;;;;;-1.80;100.00;98209.16;1710773;82;21161;-69
2022/01/21 09:07:08;;;;;;;11.97;5.53;;;;;;;-1.79;100.00;98204.58;1734116;82;22158;-71
2022/01/21 09:09:36;;;;;;;13.98;5.70;;;;;;;-1.75;99.52;98207.81;1736137;82;21278;-68
2022/01/21 09:12:05;;;;;;;24.55;5.78;;;;;;;-1.68;100.00;98199.43;1733213;82;21520;-69
2022/01/21 09:14:35;;;;;;;16.25;5.60;;;;;;;-1.64;100.00;98192.39;1733786;82;21478;-71
2022/01/21 09:17:06;;;;;;;11.28;5.12;;;;;;;-1.61;100.00;98196.45;1736685;82;22019;-67
2022/01/21 09:19:32;;;;;;;10.03;4.97;;;;;;;-1.64;99.51;98204.55;1733367;82;21071;-69
2022/01/21 09:22:02;;;;;;;9.08;5.62;;;;;;;-1.67;98.64;98190.80;1735980;82;21032;-69
2022/01/21 09:24:28;;;;;;;13.18;6.90;;;;;;;-1.72;98.27;98191.05;1735665;82;21044;-69
2022/01/21 09:26:55;;;;;;;18.30;5.65;;;;;;;-1.74;98.25;98190.51;1735793;82;21102;-69
2022/01/21 09:29:24;;;;;;;16.37;5.35;;;;;;;-1.76;98.14;98182.42;1733406;82;22052;-70
2022/01/21 09:31:52;;;;;;;10.10;4.00;;;;;;;-1.78;98.57;98184.58;1733697;82;21029;-70
2022/01/21 09:34:25;;;;;;;15.50;4.90;;;;;;;-1.77;97.61;98177.55;1735849;81;21110;-68
2022/01/21 09:36:53;;;;;;;13.13;5.42;;;;;;;-1.76;98.78;98179.72;1735117;82;21032;-69
2022/01/21 09:39:22;;;;;;;9.63;4.40;;;;;;;-1.75;97.97;98183.50;1731757;82;21000;-69
2022/01/21 09:41:50;;;;;;;9.35;4.22;;;;;;;-1.73;95.12;98177.30;1734807;82;21075;-69
2022/01/21 09:44:20;;;;;;;16.17;7.05;;;;;;;-1.73;94.54;98174.59;1732802;82;21039;-69
2022/01/21 09:46:53;;;;;;;14.95;5.55;;;;;;;-1.75;95.42;98178.63;1734459;82;20993;-69
2022/01/21 09:49:26;;;;;;;20.37;6.05;;;;;;;-1.75;94.19;98176.75;1737072;82;21055;-70
2022/01/21 09:51:50;;;;;;;7.53;3.92;;;;;;;-1.80;95.40;98182.16;1733723;82;21063;-69
2022/01/21 09:54:17;;;;;;;14.38;4.40;;;;;;;-1.84;95.10;98186.46;1735685;82;21546;-69
2022/01/21 09:56:45;;;;;;;14.05;5.45;;;;;;;-1.87;95.95;98177.02;1735625;82;21056;-68
2022/01/21 09:59:19;;;;;;;16.57;5.90;;;;;;;-1.90;95.72;98176.75;1735114;82;21016;-69
2022/01/21 10:01:54;;;;;;;;;;;;;;;-1.94;96.00;98178.39;1742495;82;21129;-69
2022/01/21 10:04:34;;;;;;;21.17;7.10;;;;;;;-2.00;96.15;98184.31;1736367;82;20267;-68
2022/01/21 10:07:02;;;;;;;17.12;6.78;;;;;;;-2.08;97.09;98178.36;1713189;82;21733;-70
2022/01/21 10:09:37;;;;;;;21.48;6.97;;;;;;;-2.13;97.15;98185.11;1738082;82;20997;-68
2022/01/21 10:12:06;;;;;;;17.52;5.42;;;;;;;-2.16;97.69;98182.13;1735210;82;32942;-67
2022/01/21 10:14:33;;;;;;;15.05;5.90;;;;;;;-2.21;97.51;98173.50;1735110;82;21067;-66
2022/01/21 10:17:00;;;;;;;12.63;5.33;;;;;;;-2.23;97.60;98175.12;1731001;82;21580;-66
2022/01/21 10:19:33;;;;;;;20.80;5.62;;;;;;;-2.25;98.12;98172.42;1720890;82;21124;-69
2022/01/21 10:22:13;;;;;;;;;;;;;;;-2.26;98.59;98169.44;1724728;82;21501;-68
2022/01/21 10:24:54;;;;;;;11.48;5.87;;;;;;;-2.27;99.04;98168.62;1722135;82;20136;-67
2022/01/21 10:27:38;;;;;;;14.10;5.58;;;;;;;-2.25;99.01;98166.47;1721957;82;21009;-70
2022/01/21 10:30:23;;;;;;;19.30;6.50;;;;;;;-2.22;98.75;98159.73;1723347;82;21088;-69
2022/01/21 10:32:54;;;;;;;12.55;5.78;;;;;;;-2.21;99.15;98163.52;1675078;82;21540;-69
2022/01/21 10:35:35;;;;;;;18.80;5.55;;;;;;;-2.21;98.61;98157.30;1719443;82;21048;-69
2022/01/21 10:38:23;;;;;;;23.75;6.37;;;;;;;-2.21;99.04;98155.95;1718900;82;21040;-67
2022/01/21 10:40:51;;;;;;;14.58;6.12;;;;;;;-2.22;99.46;98155.13;1722358;82;21061;-69
2022/01/21 10:43:21;;;;;;;14.33;5.53;;;;;;;-2.23;100.00;98155.41;1722000;82;21055;-68
2022/01/21 10:45:58;;;;;;;19.20;6.70;;;;;;;-2.21;100.00;98156.77;1703157;82;21303;-69
2022/01/21 10:48:28;;;;;;;22.70;6.92;;;;;;;-2.21;100.00;98160.00;1726098;82;21073;-68
2022/01/21 10:51:18;;;;;;;17.82;6.05;;;;;;;-2.20;100.00;98155.68;1721072;82;20973;-70
2022/01/21 10:53:45;;;;;;;16.67;5.78;;;;;;;-2.16;100.00;98151.09;1723238;82;21092;-68
2022/01/21 10:56:19;;;;;;;15.15;5.80;;;;;;;-2.15;100.00;98163.52;1717796;82;21024;-68
2022/01/21 10:58:50;;;;;;;16.97;5.95;;;;;;;-2.15;100.00;98164.87;1721947;82;21084;-69
2022/01/21 11:01:26;;;;;;;15.40;7.53;;;;;;;-2.14;100.00;98162.44;1718135;82;21558;-67
2022/01/21 11:04:08;;;;;;;16.02;5.70;;;;;;;-2.15;100.00;98159.47;1722423;82;21005;-69
2022/01/21 11:06:50;;;;;;;23.32;5.83;;;;;;;-2.16;100.00;98159.19;1724821;82;21045;-68
2022/01/21 11:09:39;;;;;;;14.98;6.67;;;;;;;-2.17;100.00;98163.80;1721093;82;20990;-67
2022/01/21 11:12:16;;;;;;;20.82;6.75;;;;;;;-2.16;100.00;98169.45;1720072;82;21277;-68
2022/01/21 11:14:58;;;;;;;19.40;6.15;;;;;;;-2.19;100.00;98165.95;1719578;82;21569;-69
2022/01/21 11:17:26;;;;;;;16.62;5.83;;;;;;;-2.21;100.00;98167.56;1719819;81;21044;-69
2022/01/21 11:20:16;;;;;;;14.53;6.00;;;;;;;-2.23;100.00;98157.57;1734608;82;21517;-68
2022/01/21 11:22:56;;;;;;;19.87;5.83;;;;;;;-2.22;100.00;98163.79;1732931;82;21053;-69
2022/01/21 11:25:48;;;;;;;14.87;5.87;;;;;;;-2.23;100.00;98161.63;1732928;82;21077;-69
2022/01/21 11:28:21;;;;;;;21.02;5.65;;;;;;;-2.23;100.00;98157.57;1735867;82;21056;-69
2022/01/21 11:30:48;;;;;;;20.32;5.28;;;;;;;-2.23;99.66;98158.92;1740086;82;21041;-69
2022/01/21 11:33:14;;;;;;;25.15;6.28;;;;;;;-2.23;100.00;98164.32;1734956;82;21012;-69
2022/01/21 11:35:47;;;;;;;19.65;6.53;;;;;;;-2.23;99.37;98155.41;1728940;82;21497;-69
2022/01/21 11:38:14;;;;;;;26.65;5.67;;;;;;;-2.23;99.09;98158.92;1733970;82;21615;-68
2022/01/21 11:40:40;;;;;;;20.15;4.10;;;;;;;-2.21;99.24;98155.95;1735710;82;21040;-69
2022/01/21 11:43:09;;;;;;;33.00;6.37;;;;;;;-2.18;98.92;98157.31;1733521;82;21028;-70
2022/01/21 11:50:47;;;;;;;20.05;4.33;;;;;;;-2.14;96.82;98163.25;1732985;82;21497;-69
2022/01/21 11:53:20;;;;;;;15.48;3.30;;;;;;;-2.21;96.80;98154.07;1735509;82;21012;-69
2022/01/21 11:55:48;;;;;;;12.10;4.70;;;;;;;-2.23;97.35;98151.35;1735473;82;21043;-67
2022/01/21 11:58:20;;;;;;;21.42;5.05;;;;;;;-2.24;97.38;98152.45;1735397;82;21469;-68
2022/01/21 12:00:49;;;;;;;24.75;6.08;;;;;;;-2.21;96.96;98151.91;1736004;82;21027;-68
2022/01/21 12:03:21;;;;;;;23.70;5.85;;;;;;;-2.21;98.05;98145.97;1736177;82;21053;-68
2022/01/21 12:05:47;;;;;;;24.95;5.53;;;;;;;-2.17;97.00;98141.37;1735254;81;21008;-68
2022/01/21 12:08:14;;;;;;;15.28;5.50;;;;;;;-2.08;95.97;98145.14;1731836;82;21555;-69
2022/01/21 12:10:46;;;;;;;32.05;5.00;;;;;;;-2.01;95.55;98147.05;1736053;82;21065;-68
2022/01/21 12:13:20;;;;;;;42.10;8.13;;;;;;;-1.93;94.61;98150.29;1735161;82;21036;-68
2022/01/21 12:19:09;;;;;;;17.98;4.72;;;;;;;-1.77;90.37;98149.72;1735601;81;21008;-69
2022/01/21 12:21:31;;;;;;;28.35;4.50;;;;;;;-1.75;88.75;98136.23;1734925;82;21004;-69
2022/01/21 12:23:59;;;;;;;9.10;3.17;;;;;;;-1.72;89.86;98150.53;1733167;82;21088;-71
2022/01/21 12:26:27;;;;;;;21.05;3.85;;;;;;;-1.73;89.34;98140.83;1737062;82;20999;-70
2022/01/21 12:29:02;;;;;;;11.35;3.70;;;;;;;-1.72;87.90;98147.83;1736991;82;21527;-69
2022/01/21 12:31:54;;;;;;;23.98;4.60;;;;;;;-1.74;87.91;98158.66;1736090;82;20981;-69
2022/01/21 12:34:27;;;;;;;19.23;3.77;;;;;;;-1.73;88.07;98157.03;1733170;82;21497;-69
2022/01/21 12:37:00;;;;;;;16.52;3.87;;;;;;;-1.69;88.35;98151.90;1710580;82;21076;-69